createdAt,value
2022-11-05T00:00:49.217Z,952.0914307
2022-11-05T00:01:49.970Z,952.1182861
2022-11-05T00:02:50.707Z,952.1289063
2022-11-05T00:03:51.971Z,952.166748
2022-11-05T00:04:52.568Z,952.135498
2022-11-05T00:05:53.175Z,952.1451416
2022-11-05T00:06:53.682Z,952.1500244
2022-11-05T00:07:54.212Z,952.159668
2022-11-05T00:08:54.858Z,952.1581421
2022-11-05T00:10:26.849Z,952.192627
2022-11-05T00:11:27.410Z,952.2017212
2022-11-05T00:12:28.046Z,952.2206421
2022-11-05T00:13:28.586Z,952.1726685
2022-11-05T00:14:29.180Z,952.2178345
2022-11-05T00:15:30.028Z,952.2540894
2022-11-05T00:16:30.527Z,952.2404785
2022-11-05T00:17:31.096Z,952.2454834
2022-11-05T00:18:32.426Z,952.2697144
2022-11-05T00:19:33.947Z,952.2792969
2022-11-05T00:20:34.700Z,952.2832642
2022-11-05T00:21:35.173Z,952.2804565
2022-11-05T00:22:35.619Z,952.2578735
2022-11-05T00:23:36.253Z,952.3063965
2022-11-05T00:24:37.054Z,952.3227539
2022-11-05T00:25:37.847Z,952.263855
2022-11-05T00:26:38.675Z,952.2822876
2022-11-05T00:27:39.150Z,952.2817383
2022-11-05T00:28:39.919Z,952.2979736
2022-11-05T00:29:41.006Z,952.2931519
2022-11-05T00:30:41.582Z,952.3258057
2022-11-05T00:31:42.190Z,952.3248291
2022-11-05T00:32:42.683Z,952.3048706
2022-11-05T00:33:43.845Z,952.2780762
2022-11-05T00:34:44.796Z,952.2542725
2022-11-05T00:35:45.436Z,952.2510986
2022-11-05T00:36:46.125Z,952.2332764
2022-11-05T00:37:50.107Z,952.2214355
2022-11-05T00:38:47.936Z,952.2521362
2022-11-05T00:39:48.535Z,952.2504883
2022-11-05T00:40:49.956Z,952.2722168
2022-11-05T00:41:50.660Z,952.3147583
2022-11-05T00:42:51.393Z,952.3217163
2022-11-05T00:43:51.951Z,952.3250122
2022-11-05T00:44:52.431Z,952.3077393
2022-11-05T00:45:53.139Z,952.3239746
2022-11-05T00:46:58.765Z,952.3395386
2022-11-05T00:47:54.385Z,952.3685913
2022-11-05T00:48:55.182Z,952.3599854
2022-11-05T00:50:27.377Z,952.3574219
2022-11-05T00:51:28.147Z,952.3630981
2022-11-05T00:52:28.683Z,952.401123
2022-11-05T00:53:29.272Z,952.3599854
2022-11-05T00:54:29.968Z,952.3892212
2022-11-05T00:55:30.386Z,952.3886108
2022-11-05T00:56:31.589Z,952.3962402
2022-11-05T00:57:32.382Z,952.4263916
2022-11-05T00:58:32.958Z,952.4053955
2022-11-05T00:59:33.495Z,952.4403076
2022-11-05T01:00:34.250Z,952.4312744
2022-11-05T01:01:36.073Z,952.5060425
2022-11-05T01:02:36.916Z,952.5108643
2022-11-05T01:03:37.352Z,952.541748
2022-11-05T01:04:37.954Z,952.5401001
2022-11-05T01:05:38.510Z,952.5335693
2022-11-05T01:06:39.158Z,952.5709229
2022-11-05T01:07:39.900Z,952.5800781
2022-11-05T01:08:40.605Z,952.6140747
2022-11-05T01:09:41.981Z,952.6297607
2022-11-05T01:10:42.738Z,952.6846924
2022-11-05T01:11:44.102Z,952.6394653
2022-11-05T01:12:45.288Z,952.6646729
2022-11-05T01:13:47.152Z,952.7207642
2022-11-05T01:14:48.215Z,952.6560669
2022-11-05T01:15:48.852Z,952.763916
2022-11-05T01:16:49.592Z,952.763916
2022-11-05T01:17:50.721Z,952.8432007
2022-11-05T01:18:52.762Z,952.8400269
2022-11-05T01:19:54.409Z,952.8733521
2022-11-05T01:20:55.319Z,952.8609619
2022-11-05T01:22:27.542Z,952.8706055
2022-11-05T01:23:28.078Z,952.8826294
2022-11-05T01:24:29.339Z,952.8934326
2022-11-05T01:25:29.838Z,952.8560181
2022-11-05T01:26:30.315Z,952.8874512
2022-11-05T01:27:31.077Z,952.9078369
2022-11-05T01:28:31.749Z,952.9099731
2022-11-05T01:29:32.345Z,952.8879395
2022-11-05T01:30:33.655Z,952.8969727
2022-11-05T01:31:34.064Z,952.9067383
2022-11-05T01:32:34.814Z,952.8943481
2022-11-05T01:33:35.624Z,952.9321289
2022-11-05T01:34:36.152Z,952.9590454
2022-11-05T01:35:36.863Z,952.9945068
2022-11-05T01:36:37.277Z,953.0220337
2022-11-05T01:37:37.793Z,953.0101318
2022-11-05T01:38:38.618Z,952.9962769
2022-11-05T01:39:39.193Z,952.9730225
2022-11-05T01:40:40.769Z,952.9724731
2022-11-05T01:41:41.449Z,952.998291
2022-11-05T01:42:41.970Z,952.9763794
2022-11-05T01:43:42.557Z,952.9547119
2022-11-05T01:44:43.177Z,952.9500122
2022-11-05T01:45:43.795Z,952.9176636
2022-11-05T01:46:44.509Z,952.9290771
2022-11-05T01:47:44.966Z,952.9299927
2022-11-05T01:48:45.511Z,952.9198608
2022-11-05T01:49:46.900Z,952.9252319
2022-11-05T01:50:48.256Z,952.9431152
2022-11-05T01:51:48.776Z,952.947876
2022-11-05T01:52:49.288Z,952.9220581
2022-11-05T01:53:49.758Z,952.9478149
2022-11-05T01:54:50.754Z,952.8886108
2022-11-05T01:55:51.331Z,952.8900146
2022-11-05T01:56:51.889Z,952.8625488
2022-11-05T01:57:52.466Z,952.8754883
2022-11-05T01:58:52.940Z,952.8825684
2022-11-05T01:59:54.044Z,952.8840332
2022-11-05T02:01:26.476Z,952.883606
2022-11-05T02:02:26.882Z,952.8959351
2022-11-05T02:03:27.302Z,952.9024048
2022-11-05T02:04:27.741Z,952.8755493
2022-11-05T02:05:28.218Z,952.9224854
2022-11-05T02:06:29.162Z,952.8723145
2022-11-05T02:07:29.691Z,952.8620605
2022-11-05T02:08:30.249Z,952.8852539
2022-11-05T02:09:30.900Z,952.899231
2022-11-05T02:10:32.198Z,952.9126587
2022-11-05T02:11:32.825Z,952.9126587
2022-11-05T02:12:33.412Z,952.930481
2022-11-05T02:13:33.969Z,952.9311523
2022-11-05T02:14:34.552Z,952.9343262
2022-11-05T02:15:36.000Z,953.0145264
2022-11-05T02:16:36.880Z,953.0200195
2022-11-05T02:17:37.372Z,953.0410767
2022-11-05T02:18:38.445Z,953.0200806
2022-11-05T02:19:39.127Z,952.9950562
2022-11-05T02:20:40.123Z,953.0119019
2022-11-05T02:21:40.616Z,953.0095825
2022-11-05T02:22:41.218Z,953.0134277
2022-11-05T02:23:41.749Z,953.0545044
2022-11-05T02:24:42.446Z,953.0657959
2022-11-05T02:25:42.886Z,953.0759277
2022-11-05T02:26:43.473Z,953.0609131
2022-11-05T02:27:44.139Z,953.116333
2022-11-05T02:28:44.684Z,953.0942383
2022-11-05T02:29:45.323Z,953.1369019
2022-11-05T02:30:46.858Z,953.1158447
2022-11-05T02:31:47.412Z,953.1044312
2022-11-05T02:32:47.865Z,953.0856323
2022-11-05T02:33:48.552Z,953.1124878
2022-11-05T02:34:49.136Z,953.114624
2022-11-05T02:35:49.636Z,953.1120605
2022-11-05T02:36:50.093Z,953.0817871
2022-11-05T02:37:50.855Z,953.0622559
2022-11-05T02:38:51.370Z,953.034668
2022-11-05T02:39:51.895Z,953.0363159
2022-11-05T02:40:53.192Z,953.0337524
2022-11-05T02:41:53.705Z,953.0644531
2022-11-05T02:43:24.794Z,953.0806274
2022-11-05T02:44:25.553Z,953.0734253
2022-11-05T02:45:26.089Z,953.0838013
2022-11-05T02:46:26.583Z,953.0407104
2022-11-05T02:47:27.152Z,953.0310059
2022-11-05T02:48:27.713Z,952.9932251
2022-11-05T02:49:28.386Z,953.0563354
2022-11-05T02:50:28.913Z,953.0426636
2022-11-05T02:51:29.969Z,953.0353394
2022-11-05T02:52:30.542Z,953.0734863
2022-11-05T02:53:30.925Z,953.0670166
2022-11-05T02:54:31.340Z,953.0460815
2022-11-05T02:55:31.928Z,953.0923462
2022-11-05T02:56:32.409Z,953.0939941
2022-11-05T02:57:32.968Z,953.0928955
2022-11-05T02:58:33.413Z,953.1122437
2022-11-05T02:59:33.834Z,953.1242065
2022-11-05T03:00:34.467Z,953.1607056
2022-11-05T03:01:35.746Z,953.2050781
2022-11-05T03:02:36.332Z,953.2487793
2022-11-05T03:03:36.675Z,953.2098389
2022-11-05T03:04:37.205Z,953.2334595
2022-11-05T03:05:37.725Z,953.2617188
2022-11-05T03:06:38.263Z,953.3102417
2022-11-05T03:07:38.768Z,953.2594604
2022-11-05T03:08:39.328Z,953.2892456
2022-11-05T03:09:39.731Z,953.2681885
2022-11-05T03:10:40.935Z,953.3165894
2022-11-05T03:11:41.544Z,953.3629761
2022-11-05T03:12:42.045Z,953.3005371
2022-11-05T03:13:42.570Z,953.3468018
2022-11-05T03:14:43.033Z,953.3387451
2022-11-05T03:15:43.432Z,953.3549805
2022-11-05T03:16:43.975Z,953.3599243
2022-11-05T03:17:44.665Z,953.3641357
2022-11-05T03:18:45.126Z,953.3739014
2022-11-05T03:19:45.627Z,953.3426514
2022-11-05T03:20:46.899Z,953.3549805
2022-11-05T03:21:47.307Z,953.3710938
2022-11-05T03:22:47.873Z,953.3598633
2022-11-05T03:23:48.336Z,953.3549805
2022-11-05T03:24:48.835Z,953.3847046
2022-11-05T03:25:49.437Z,953.3824463
2022-11-05T03:26:49.846Z,953.4715576
2022-11-05T03:27:50.531Z,953.4375
2022-11-05T03:28:51.098Z,953.4753418
2022-11-05T03:29:51.584Z,953.5006104
2022-11-05T03:30:52.896Z,953.517334
2022-11-05T03:32:23.927Z,953.4907837
2022-11-05T03:33:24.612Z,953.5270386
2022-11-05T03:34:25.102Z,953.602356
2022-11-05T03:35:25.604Z,953.5788574
2022-11-05T03:36:26.111Z,953.586853
2022-11-05T03:37:26.514Z,953.6282959
2022-11-05T03:38:27.024Z,953.5965576
2022-11-05T03:39:27.634Z,953.5900269
2022-11-05T03:40:28.167Z,953.6035156
2022-11-05T03:41:28.622Z,953.6259155
2022-11-05T03:42:29.143Z,953.6339722
2022-11-05T03:43:29.738Z,953.6275024
2022-11-05T03:44:30.350Z,953.6436768
2022-11-05T03:45:30.898Z,953.6383057
2022-11-05T03:46:31.371Z,953.666748
2022-11-05T03:47:31.921Z,953.694397
2022-11-05T03:48:32.443Z,953.6538086
2022-11-05T03:49:33.418Z,953.6989136
2022-11-05T03:50:40.062Z,953.704834
2022-11-05T03:51:35.142Z,953.685791
2022-11-05T03:52:35.603Z,953.7203369
2022-11-05T03:53:36.149Z,953.7159424
2022-11-05T03:54:36.628Z,953.7438965
2022-11-05T03:55:37.149Z,953.779541
2022-11-05T03:56:37.702Z,953.7536011
2022-11-05T03:57:38.225Z,953.776123
2022-11-05T03:58:38.664Z,953.7647095
2022-11-05T03:59:39.142Z,953.7960815
2022-11-05T04:00:39.676Z,953.7954102
2022-11-05T04:01:41.387Z,953.8574829
2022-11-05T04:02:41.945Z,953.8445435
2022-11-05T04:03:42.285Z,953.8580322
2022-11-05T04:04:42.815Z,953.8460693
2022-11-05T04:05:43.225Z,953.9000854
2022-11-05T04:06:43.842Z,953.8945923
2022-11-05T04:07:44.348Z,953.8908081
2022-11-05T04:08:44.818Z,953.8266602
2022-11-05T04:09:45.333Z,953.8596802
2022-11-05T04:10:46.443Z,953.8817139
2022-11-05T04:11:47.145Z,953.8947144
2022-11-05T04:12:47.694Z,953.9108887
2022-11-05T04:13:48.170Z,953.9279785
2022-11-05T04:14:48.647Z,953.8956909
2022-11-05T04:15:49.185Z,953.9004517
2022-11-05T04:16:49.746Z,953.9651489
2022-11-05T04:17:50.526Z,953.9246826
2022-11-05T04:18:51.132Z,953.9077148
2022-11-05T04:19:51.571Z,953.9254761
2022-11-05T04:20:53.044Z,953.9296875
2022-11-05T04:22:24.446Z,953.8746948
2022-11-05T04:23:25.082Z,953.894043
2022-11-05T04:24:25.536Z,953.84729
2022-11-05T04:25:26.026Z,953.9054565
2022-11-05T04:26:26.429Z,953.9254761
2022-11-05T04:27:26.869Z,953.9442749
2022-11-05T04:28:27.569Z,953.9474487
2022-11-05T04:29:28.135Z,953.9307861
2022-11-05T04:30:28.560Z,953.9448242
2022-11-05T04:31:29.740Z,953.9588013
2022-11-05T04:32:30.185Z,953.9890747
2022-11-05T04:33:30.707Z,953.9771729
2022-11-05T04:34:31.255Z,953.9314575
2022-11-05T04:35:31.721Z,953.9528809
2022-11-05T04:36:32.157Z,953.958374
2022-11-05T04:37:32.656Z,954.0004883
2022-11-05T04:38:33.115Z,953.9578247
2022-11-05T04:39:33.657Z,953.9456177
2022-11-05T04:40:34.118Z,954.0215454
2022-11-05T04:41:35.192Z,954.0031128
2022-11-05T04:42:35.737Z,954.0441895
2022-11-05T04:43:36.147Z,954.0387573
2022-11-05T04:44:36.688Z,954.0882568
2022-11-05T04:45:37.151Z,954.0505371
2022-11-05T04:46:37.637Z,954.0580444
2022-11-05T04:47:38.155Z,954.0709229
2022-11-05T04:48:38.636Z,954.0531006
2022-11-05T04:49:39.997Z,954.0907593
2022-11-05T04:50:40.667Z,954.0234985
2022-11-05T04:51:41.715Z,954.0769043
2022-11-05T04:52:42.186Z,954.0881348
2022-11-05T04:53:42.715Z,954.0348511
2022-11-05T04:54:43.296Z,954.0866699
2022-11-05T04:55:43.758Z,954.0794678
2022-11-05T04:56:44.354Z,954.0925293
2022-11-05T04:57:44.901Z,954.1063843
2022-11-05T04:58:45.311Z,954.1168823
2022-11-05T04:59:45.939Z,954.1168823
2022-11-05T05:00:46.495Z,954.1404419
2022-11-05T05:01:47.831Z,954.1523438
2022-11-05T05:02:48.369Z,954.1625977
2022-11-05T05:03:48.813Z,954.1796875
2022-11-05T05:04:49.316Z,954.1662598
2022-11-05T05:05:52.956Z,954.2210693
2022-11-05T05:07:20.582Z,954.2000122
2022-11-05T05:08:51.405Z,954.2246704
2022-11-05T05:09:51.902Z,954.2706299
2022-11-05T05:11:23.682Z,954.2608643
2022-11-05T05:12:25.349Z,954.2700195
2022-11-05T05:13:25.847Z,954.2478638
2022-11-05T05:14:26.402Z,954.2285156
2022-11-05T05:15:26.845Z,954.2770996
2022-11-05T05:16:27.277Z,954.2803345
2022-11-05T05:17:27.868Z,954.2734375
2022-11-05T05:18:28.377Z,954.2668457
2022-11-05T05:19:28.883Z,954.2626343
2022-11-05T05:20:30.143Z,954.2905273
2022-11-05T05:21:31.419Z,954.2662354
2022-11-05T05:22:31.947Z,954.2976685
2022-11-05T05:23:32.602Z,954.2982178
2022-11-05T05:24:33.085Z,954.31604
2022-11-05T05:25:33.603Z,954.326416
2022-11-05T05:26:34.113Z,954.3693848
2022-11-05T05:27:34.524Z,954.3376465
2022-11-05T05:28:35.029Z,954.3807983
2022-11-05T05:29:35.593Z,954.4060669
2022-11-05T05:30:36.093Z,954.4002075
2022-11-05T05:31:37.452Z,954.4050903
2022-11-05T05:32:37.968Z,954.3840332
2022-11-05T05:33:38.450Z,954.3850708
2022-11-05T05:34:38.947Z,954.3979492
2022-11-05T05:35:39.635Z,954.413147
2022-11-05T05:36:40.094Z,954.4001465
2022-11-05T05:37:40.501Z,954.4254761
2022-11-05T05:38:41.017Z,954.451416
2022-11-05T05:39:41.676Z,954.4636841
2022-11-05T05:40:42.972Z,954.4390869
2022-11-05T05:41:43.521Z,954.4545288
2022-11-05T05:42:44.908Z,954.4260254
2022-11-05T05:43:45.400Z,954.43573
2022-11-05T05:44:45.925Z,954.4525146
2022-11-05T05:45:46.397Z,954.4598389
2022-11-05T05:46:46.902Z,954.4937744
2022-11-05T05:47:47.344Z,954.513916
2022-11-05T05:48:47.785Z,954.5050049
2022-11-05T05:49:48.337Z,954.4960327
2022-11-05T05:50:48.904Z,954.526123
2022-11-05T05:51:50.528Z,954.5147095
2022-11-05T05:52:50.991Z,954.4926758
2022-11-05T05:53:51.890Z,954.5093994
2022-11-05T05:55:22.509Z,954.5410767
2022-11-05T05:56:23.809Z,954.5136108
2022-11-05T05:57:24.291Z,954.5109253
2022-11-05T05:58:24.728Z,954.4873657
2022-11-05T05:59:25.201Z,954.5045166
2022-11-05T06:00:26.408Z,954.5092163
2022-11-05T06:01:27.067Z,954.4428711
2022-11-05T06:02:28.396Z,954.4608765
2022-11-05T06:03:28.782Z,954.4349976
2022-11-05T06:04:29.192Z,954.4332886
2022-11-05T06:05:29.671Z,954.4748535
2022-11-05T06:06:30.239Z,954.4754028
2022-11-05T06:07:34.526Z,954.4468994
2022-11-05T06:08:31.237Z,954.4855957
2022-11-05T06:09:31.665Z,954.4639282
2022-11-05T06:10:32.211Z,954.5222168
2022-11-05T06:11:33.536Z,954.5665894
2022-11-05T06:12:33.972Z,954.5697021
2022-11-05T06:13:34.453Z,954.588623
2022-11-05T06:14:34.965Z,954.6160889
2022-11-05T06:15:36.222Z,954.6057739
2022-11-05T06:16:35.915Z,954.6251831
2022-11-05T06:17:36.433Z,954.6638794
2022-11-05T06:18:36.921Z,954.6638794
2022-11-05T06:19:37.455Z,954.6849976
2022-11-05T06:20:38.022Z,954.7124023
2022-11-05T06:21:39.451Z,954.6952515
2022-11-05T06:22:39.959Z,954.7276001
2022-11-05T06:23:40.453Z,954.753418
2022-11-05T06:24:41.959Z,954.7561035
2022-11-05T06:25:42.369Z,954.7437744
2022-11-05T06:26:42.991Z,954.7615356
2022-11-05T06:27:43.523Z,954.8148193
2022-11-05T06:28:44.121Z,954.8535767
2022-11-05T06:29:44.601Z,954.8930664
2022-11-05T06:30:45.095Z,954.9070435
2022-11-05T06:31:46.417Z,954.9516602
2022-11-05T06:32:46.844Z,954.9464111
2022-11-05T06:33:47.450Z,954.9662476
2022-11-05T06:34:47.903Z,954.9629517
2022-11-05T06:35:48.469Z,954.9823608
2022-11-05T06:36:48.927Z,954.9458008
2022-11-05T06:37:49.370Z,954.9802856
2022-11-05T06:38:49.964Z,954.9699707
2022-11-05T06:39:50.535Z,955.0014038
2022-11-05T06:41:21.832Z,955.0474854
2022-11-05T06:42:23.195Z,955.0491333
2022-11-05T06:43:23.759Z,955.0443115
2022-11-05T06:44:24.452Z,955.0837402
2022-11-05T06:45:25.167Z,955.0864258
2022-11-05T06:46:25.762Z,955.1084595
2022-11-05T06:47:26.343Z,955.0914307
2022-11-05T06:48:26.853Z,955.0939331
2022-11-05T06:49:27.428Z,955.1365356
2022-11-05T06:50:28.994Z,955.1213989
2022-11-05T06:51:29.506Z,955.144043
2022-11-05T06:52:30.660Z,955.1603394
2022-11-05T06:53:31.268Z,955.1479492
2022-11-05T06:54:31.931Z,955.1560059
2022-11-05T06:55:32.733Z,955.1958618
2022-11-05T06:56:33.521Z,955.1624756
2022-11-05T06:57:34.196Z,955.1586914
2022-11-05T06:58:34.862Z,955.1829834
2022-11-05T06:59:35.668Z,955.217041
2022-11-05T07:00:36.325Z,955.2175293
2022-11-05T07:01:37.075Z,955.1862793
2022-11-05T07:02:38.255Z,955.2234497
2022-11-05T07:03:38.728Z,955.215332
2022-11-05T07:04:39.252Z,955.2945557
2022-11-05T07:05:39.934Z,955.2872925
2022-11-05T07:06:40.769Z,955.3362427
2022-11-05T07:07:41.482Z,955.3126831
2022-11-05T07:08:42.318Z,955.3724976
2022-11-05T07:09:43.001Z,955.3428345
2022-11-05T07:10:43.702Z,955.3574219
2022-11-05T07:11:44.585Z,955.4263916
2022-11-05T07:12:45.879Z,955.3947144
2022-11-05T07:13:46.359Z,955.4286499
2022-11-05T07:14:46.877Z,955.4295044
2022-11-05T07:15:47.562Z,955.4640503
2022-11-05T07:16:48.126Z,955.4786987
2022-11-05T07:17:48.819Z,955.5303345
2022-11-05T07:18:49.357Z,955.5530396
2022-11-05T07:19:49.788Z,955.6015625
2022-11-05T07:21:21.705Z,955.6257935
2022-11-05T07:22:23.011Z,955.6550293
2022-11-05T07:23:23.585Z,955.6598511
2022-11-05T07:24:24.159Z,955.6942139
2022-11-05T07:25:24.620Z,955.6431274
2022-11-05T07:26:25.148Z,955.6901855
2022-11-05T07:27:25.630Z,955.6895142
2022-11-05T07:28:26.268Z,955.717041
2022-11-05T07:29:26.860Z,955.694519
2022-11-05T07:30:27.524Z,955.727356
2022-11-05T07:31:28.414Z,955.7539063
2022-11-05T07:32:29.458Z,955.7372437
2022-11-05T07:33:35.253Z,955.7307739
2022-11-05T07:34:30.515Z,955.7221069
2022-11-05T07:35:31.032Z,955.711853
2022-11-05T07:36:31.457Z,955.7416992
2022-11-05T07:37:31.905Z,955.7509155
2022-11-05T07:38:32.448Z,955.7687378
2022-11-05T07:39:32.939Z,955.7268066
2022-11-05T07:40:34.440Z,955.770874
2022-11-05T07:41:34.904Z,955.7505493
2022-11-05T07:42:35.459Z,955.7564087
2022-11-05T07:43:36.045Z,955.7952881
2022-11-05T07:44:36.520Z,955.7873535
2022-11-05T07:45:37.081Z,955.8265381
2022-11-05T07:46:37.608Z,955.8601685
2022-11-05T07:47:38.017Z,955.8252563
2022-11-05T07:48:38.586Z,955.8150024
2022-11-05T07:49:39.213Z,955.826416
2022-11-05T07:50:39.714Z,955.821106
2022-11-05T07:51:40.169Z,955.8800659
2022-11-05T07:52:41.409Z,955.8895264
2022-11-05T07:53:45.289Z,955.8773193
2022-11-05T07:54:42.440Z,955.9590454
2022-11-05T07:55:42.958Z,955.9220581
2022-11-05T07:56:43.426Z,955.9081421
2022-11-05T07:57:43.933Z,955.9570313
2022-11-05T07:58:44.447Z,955.942627
2022-11-05T07:59:44.826Z,955.9731445
2022-11-05T08:00:45.556Z,955.9906006
2022-11-05T08:01:46.280Z,955.989502
2022-11-05T08:02:47.490Z,956.0075073
2022-11-05T08:03:47.934Z,956.006958
2022-11-05T08:04:48.217Z,956.0437622
2022-11-05T08:05:50.395Z,956.0723267
2022-11-05T08:07:21.213Z,956.0595093
2022-11-05T08:08:21.771Z,956.0982666
2022-11-05T08:09:22.256Z,956.088623
2022-11-05T08:10:22.649Z,956.1210938
2022-11-05T08:11:23.122Z,956.1518555
2022-11-05T08:12:24.434Z,956.1610718
2022-11-05T08:13:24.948Z,956.1685791
2022-11-05T08:14:25.535Z,956.2140503
2022-11-05T08:15:26.014Z,956.2043457
2022-11-05T08:16:26.439Z,956.2496948
2022-11-05T08:17:27.206Z,956.2335815
2022-11-05T08:18:27.574Z,956.2771606
2022-11-05T08:19:28.115Z,956.237793
2022-11-05T08:20:28.557Z,956.3041992
2022-11-05T08:21:29.620Z,956.312439
2022-11-05T08:22:30.938Z,956.276123
2022-11-05T08:23:31.634Z,956.3123169
2022-11-05T08:24:32.203Z,956.3123169
2022-11-05T08:25:32.626Z,956.2943726
2022-11-05T08:26:33.153Z,956.3434448
2022-11-05T08:27:33.784Z,956.3181152
2022-11-05T08:28:34.242Z,956.2834473
2022-11-05T08:29:34.813Z,956.3126831
2022-11-05T08:30:35.298Z,956.3392944
2022-11-05T08:31:35.712Z,956.3464355
2022-11-05T08:32:36.935Z,956.3389282
2022-11-05T08:33:37.588Z,956.3533325
2022-11-05T08:34:38.244Z,956.3418579
2022-11-05T08:35:38.967Z,956.3474731
2022-11-05T08:36:39.706Z,956.3378296
2022-11-05T08:37:40.303Z,956.3742676
2022-11-05T08:38:41.746Z,956.3571777
2022-11-05T08:39:42.635Z,956.319397
2022-11-05T08:40:43.028Z,956.2865601
2022-11-05T08:41:43.611Z,956.3269653
2022-11-05T08:42:45.047Z,956.2946777
2022-11-05T08:43:45.541Z,956.2996826
2022-11-05T08:44:46.199Z,956.2693481
2022-11-05T08:45:46.844Z,956.3040771
2022-11-05T08:46:47.293Z,956.3104858
2022-11-05T08:47:47.746Z,956.3186035
2022-11-05T08:48:48.367Z,956.3157959
2022-11-05T08:49:48.852Z,956.3803101
2022-11-05T08:51:20.066Z,956.3807983
2022-11-05T08:52:20.747Z,956.3557129
2022-11-05T08:53:22.309Z,956.3599854
2022-11-05T08:54:22.824Z,956.3815918
2022-11-05T08:55:24.009Z,956.3718262
2022-11-05T08:56:24.701Z,956.3914185
2022-11-05T08:57:25.162Z,956.3666382
2022-11-05T08:58:25.641Z,956.366272
2022-11-05T08:59:26.226Z,956.367981
2022-11-05T09:00:26.995Z,956.3815918
2022-11-05T09:01:27.799Z,956.3820801
2022-11-05T09:02:29.038Z,956.3920288
2022-11-05T09:03:30.516Z,956.3965454
2022-11-05T09:04:31.232Z,956.3674927
2022-11-05T09:05:32.126Z,956.3629761
2022-11-05T09:06:32.724Z,956.3701782
2022-11-05T09:07:33.340Z,956.430603
2022-11-05T09:08:33.878Z,956.4451294
2022-11-05T09:09:34.378Z,956.4274292
2022-11-05T09:10:35.113Z,956.4699097
2022-11-05T09:12:05.281Z,956.5239258
2022-11-05T09:12:36.989Z,956.4996948
2022-11-05T09:13:37.606Z,956.5147095
2022-11-05T09:14:38.638Z,956.5309448
2022-11-05T09:15:39.157Z,956.5147095
2022-11-05T09:16:39.724Z,956.5653076
2022-11-05T09:17:40.295Z,956.534668
2022-11-05T09:18:40.747Z,956.531311
2022-11-05T09:19:41.349Z,956.5108032
2022-11-05T09:20:41.897Z,956.5426636
2022-11-05T09:21:42.407Z,956.5252075
2022-11-05T09:22:43.944Z,956.5449829
2022-11-05T09:23:44.473Z,956.5395508
2022-11-05T09:24:44.979Z,956.5281372
2022-11-05T09:25:45.441Z,956.5692749
2022-11-05T09:26:45.917Z,956.5395508
2022-11-05T09:27:46.463Z,956.5459595
2022-11-05T09:28:46.968Z,956.607605
2022-11-05T09:29:47.524Z,956.6141968
2022-11-05T09:30:48.040Z,956.6281738
2022-11-05T09:31:48.480Z,956.635376
2022-11-05T09:33:20.216Z,956.6112671
2022-11-05T09:34:20.812Z,956.6132813
2022-11-05T09:35:21.343Z,956.6247559
2022-11-05T09:36:21.829Z,956.5890503
2022-11-05T09:37:22.280Z,956.6264038
2022-11-05T09:38:23.065Z,956.6134644
2022-11-05T09:39:23.688Z,956.6939087
2022-11-05T09:40:24.258Z,956.6698608
2022-11-05T09:41:24.755Z,956.6931152
2022-11-05T09:42:25.163Z,956.6603394
2022-11-05T09:43:31.477Z,956.7139282
2022-11-05T09:44:26.884Z,956.7246704
2022-11-05T09:45:27.381Z,956.7042236
2022-11-05T09:46:27.964Z,956.7125244
2022-11-05T09:47:28.360Z,956.7146606
2022-11-05T09:48:28.872Z,956.7267456
2022-11-05T09:49:29.491Z,956.7097168
2022-11-05T09:50:29.976Z,956.7190552
2022-11-05T09:51:31.443Z,956.7700195
2022-11-05T09:52:31.992Z,956.7310791
2022-11-05T09:53:33.208Z,956.7307129
2022-11-05T09:54:33.864Z,956.753418
2022-11-05T09:55:34.378Z,956.7390137
2022-11-05T09:56:34.933Z,956.7401733
2022-11-05T09:57:35.508Z,956.7573242
2022-11-05T09:58:36.244Z,956.7667236
2022-11-05T09:59:36.819Z,956.7902832
2022-11-05T10:00:37.316Z,956.7915649
2022-11-05T10:01:38.148Z,956.833374
2022-11-05T10:02:38.449Z,956.8188477
2022-11-05T10:03:38.830Z,956.868103
2022-11-05T10:04:40.285Z,956.9432983
2022-11-05T10:05:41.070Z,956.8991699
2022-11-05T10:06:41.588Z,956.8886108
2022-11-05T10:07:42.040Z,956.8978271
2022-11-05T10:08:42.604Z,956.907959
2022-11-05T10:09:43.137Z,956.9151611
2022-11-05T10:10:43.641Z,956.916748
2022-11-05T10:11:44.216Z,956.8947144
2022-11-05T10:12:44.808Z,956.934082
2022-11-05T10:13:45.369Z,956.9498291
2022-11-05T10:14:46.737Z,956.96875
2022-11-05T10:15:47.283Z,956.9770508
2022-11-05T10:16:47.847Z,957.0095215
2022-11-05T10:18:18.911Z,957.0100098
2022-11-05T10:19:19.389Z,956.991272
2022-11-05T10:20:19.912Z,957.0115356
2022-11-05T10:21:37.732Z,956.9927979
2022-11-05T10:22:21.255Z,957.0040894
2022-11-05T10:23:22.689Z,956.9771118
2022-11-05T10:24:24.303Z,956.996582
2022-11-05T10:25:24.850Z,957.0250854
2022-11-05T10:26:25.588Z,957.0142822
2022-11-05T10:27:26.177Z,957.0014038
2022-11-05T10:28:26.609Z,957.0176392
2022-11-05T10:29:27.118Z,957.0435791
2022-11-05T10:30:27.579Z,957.0456543
2022-11-05T10:31:32.853Z,957.0651855
2022-11-05T10:32:29.454Z,957.0634155
2022-11-05T10:33:30.945Z,957.0292358
2022-11-05T10:34:31.587Z,957.0264893
2022-11-05T10:35:32.206Z,957.0217285
2022-11-05T10:36:32.774Z,957.0378418
2022-11-05T10:37:36.969Z,957.0669556
2022-11-05T10:38:34.207Z,957.0395508
2022-11-05T10:39:35.098Z,957.0777588
2022-11-05T10:40:35.748Z,957.0476685
2022-11-05T10:41:36.447Z,957.05896
2022-11-05T10:42:37.124Z,957.0552368
2022-11-05T10:43:38.547Z,957.0790405
2022-11-05T10:44:39.247Z,957.0532837
2022-11-05T10:45:39.933Z,957.0504761
2022-11-05T10:46:40.532Z,957.0960693
2022-11-05T10:47:41.242Z,957.0617065
2022-11-05T10:48:43.840Z,957.0610962
2022-11-05T10:49:42.488Z,957.0432739
2022-11-05T10:50:43.038Z,957.0477905
2022-11-05T10:51:44.480Z,957.0686035
2022-11-05T10:52:45.254Z,957.0465698
2022-11-05T10:53:46.533Z,957.0050659
2022-11-05T10:54:47.196Z,957.0479736
2022-11-05T10:56:18.549Z,957.0085449
2022-11-05T10:57:19.451Z,957.0211182
2022-11-05T10:58:20.932Z,956.9473267
2022-11-05T10:59:21.586Z,956.9475098
2022-11-05T11:00:22.975Z,956.9567871
2022-11-05T11:01:23.995Z,956.9361572
2022-11-05T11:02:24.669Z,956.9494629
2022-11-05T11:03:25.400Z,956.967041
2022-11-05T11:04:26.914Z,956.9586182
2022-11-05T11:05:27.721Z,956.9486084
2022-11-05T11:06:28.464Z,956.9430542